createdAt,value
2023-04-16T00:00:51.887Z,100609.31
2023-04-16T00:03:18.815Z,100611.91
2023-04-16T00:05:45.853Z,100611.97
2023-04-16T00:08:12.770Z,100616.34
2023-04-16T00:10:39.553Z,100608.22
2023-04-16T00:13:06.285Z,100613.75
2023-04-16T00:15:33.052Z,100620.72
2023-04-16T00:17:59.842Z,100620.88
2023-04-16T00:20:26.636Z,100617.44
2023-04-16T00:22:53.419Z,100617.44
2023-04-16T00:25:20.471Z,100621.81
2023-04-16T00:27:47.243Z,100625.25
2023-04-16T00:30:14.063Z,100621.72
2023-04-16T00:32:40.901Z,100621.81
2023-04-16T00:35:08.226Z,100620.03
2023-04-16T00:37:35.015Z,100611.50
2023-04-16T00:40:01.858Z,100613.19
2023-04-16T00:42:28.679Z,100624.56
2023-04-16T00:44:55.478Z,100623.53
2023-04-16T00:47:22.315Z,100621.06
2023-04-16T00:49:49.379Z,100621.06
2023-04-16T00:52:16.165Z,100617.66
2023-04-16T00:54:43.201Z,100622.22
2023-04-16T00:57:10.986Z,100623.16
2023-04-16T00:59:37.808Z,100612.69
2023-04-16T01:02:04.853Z,100624.19
2023-04-16T01:04:31.739Z,100629.19
2023-04-16T01:06:58.611Z,100627.69
2023-04-16T01:09:25.412Z,100623.16
2023-04-16T01:11:52.191Z,100632.63
2023-04-16T01:14:18.954Z,100629.78
2023-04-16T01:16:45.795Z,100635.28
2023-04-16T01:19:12.699Z,100638.78
2023-04-16T01:21:39.508Z,100633.56
2023-04-16T01:24:06.592Z,100633.47
2023-04-16T01:26:33.373Z,100637.16
2023-04-16T01:29:00.218Z,100647.84
2023-04-16T01:31:27.377Z,100648.72
2023-04-16T01:34:17.372Z,100649.78
2023-04-16T01:36:44.782Z,100651.56
2023-04-16T01:39:15.792Z,100648.72
2023-04-16T01:41:42.817Z,100655.69
2023-04-16T01:44:09.659Z,100648.69
2023-04-16T01:46:36.761Z,100651.16
2023-04-16T01:49:04.946Z,100645.75
2023-04-16T01:51:32.408Z,100650.72
2023-04-16T01:53:59.199Z,100650.41
2023-04-16T01:56:26.408Z,100648.31
2023-04-16T01:58:53.706Z,100651.75
2023-04-16T02:01:20.668Z,100654.28
2023-04-16T02:03:48.808Z,100658.91
2023-04-16T02:06:15.860Z,100655.63
2023-04-16T02:08:43.418Z,100653.81
2023-04-16T02:11:10.465Z,100661.66
2023-04-16T02:13:37.295Z,100668.94
2023-04-16T02:16:04.756Z,100669.72
2023-04-16T02:18:46.690Z,100671.53
2023-04-16T02:21:15.080Z,100670.16
2023-04-16T02:23:42.952Z,100666.66
2023-04-16T02:26:09.826Z,100669.66
2023-04-16T02:28:37.709Z,100670.25
2023-04-16T02:31:04.768Z,100667.59
2023-04-16T02:33:39.075Z,100667.78
2023-04-16T02:36:06.347Z,100670.50
2023-04-16T02:38:33.292Z,100668.72
2023-04-16T02:41:00.209Z,100670.44
2023-04-16T02:43:27.023Z,100673.63
2023-04-16T02:45:53.858Z,100674.13
2023-04-16T02:48:20.645Z,100668.38
2023-04-16T02:50:47.485Z,100672.75
2023-04-16T02:53:14.549Z,100678.84
2023-04-16T02:55:41.516Z,100680.47
2023-04-16T02:58:08.382Z,100686.69
2023-04-16T03:00:35.191Z,100684.81
2023-04-16T03:03:02.340Z,100693.03
2023-04-16T03:05:29.313Z,100686.94
2023-04-16T03:07:57.453Z,100687.72
2023-04-16T03:10:24.718Z,100696.28
2023-04-16T03:12:51.603Z,100701.06
2023-04-16T03:15:18.439Z,100695.78
2023-04-16T03:17:45.271Z,100699.13
2023-04-16T03:20:12.356Z,100699.53
2023-04-16T03:22:39.518Z,100699.25
2023-04-16T03:25:08.054Z,100695.28
2023-04-16T03:27:34.993Z,100703.31
2023-04-16T03:30:02.430Z,100702.63
2023-04-16T03:32:30.048Z,100697.75
2023-04-16T03:34:57.180Z,100703.31
2023-04-16T03:37:24.075Z,100702.44
2023-04-16T03:39:51.513Z,100702.63
2023-04-16T03:42:18.309Z,100701.59
2023-04-16T03:44:45.162Z,100706.63
2023-04-16T03:47:12.422Z,100709.72
2023-04-16T03:49:39.247Z,100708.94
2023-04-16T03:52:06.632Z,100712.63
2023-04-16T03:54:33.399Z,100712.72
2023-04-16T03:57:11.732Z,100713.41
2023-04-16T03:59:38.549Z,100716.91
2023-04-16T04:02:05.506Z,100715.38
2023-04-16T04:04:32.417Z,100725.78
2023-04-16T04:06:59.257Z,100728.53
2023-04-16T04:09:27.214Z,100728.19
2023-04-16T04:11:54.074Z,100730.34
2023-04-16T04:14:20.876Z,100728.44
2023-04-16T04:16:47.723Z,100734.16
2023-04-16T04:19:14.863Z,100736.31
2023-04-16T04:21:42.219Z,100741.56
2023-04-16T04:24:09.114Z,100745.13
2023-04-16T04:26:36.311Z,100745.38
2023-04-16T04:29:03.121Z,100739.91
2023-04-16T04:31:30.577Z,100747.69
2023-04-16T04:33:57.330Z,100749.91
2023-04-16T04:36:24.153Z,100748.91
2023-04-16T04:38:51.709Z,100751.78
2023-04-16T04:41:19.821Z,100750.84
2023-04-16T04:43:47.219Z,100748.81
2023-04-16T04:46:14.035Z,100747.78
2023-04-16T04:48:41.353Z,100759.13
2023-04-16T04:51:08.148Z,100762.66
2023-04-16T04:53:34.952Z,100759.84
2023-04-16T04:56:09.185Z,100757.00
2023-04-16T04:58:40.164Z,100760.75
2023-04-16T05:01:07.175Z,100775.00
2023-04-16T05:03:34.098Z,100764.28
2023-04-16T05:06:01.129Z,100767.09
2023-04-16T05:08:27.862Z,100771.72
2023-04-16T05:10:54.595Z,100776.59
2023-04-16T05:13:21.424Z,100782.16
2023-04-16T05:15:48.222Z,100788.75
2023-04-16T05:18:14.976Z,100787.97
2023-04-16T05:20:41.704Z,100784.72
2023-04-16T05:23:08.495Z,100790.72
2023-04-16T05:25:35.346Z,100793.78
2023-04-16T05:28:02.053Z,100792.50
2023-04-16T05:30:28.926Z,100799.94
2023-04-16T05:32:55.802Z,100803.59
2023-04-16T05:35:22.595Z,100801.75
2023-04-16T05:37:49.675Z,100797.78
2023-04-16T05:40:16.393Z,100804.47
2023-04-16T05:42:43.195Z,100802.34
2023-04-16T05:45:10.848Z,100798.66
2023-04-16T05:47:37.646Z,100808.50
2023-04-16T05:50:04.932Z,100801.66
2023-04-16T05:52:31.703Z,100809.88
2023-04-16T05:55:01.875Z,100804.22
2023-04-16T05:57:29.665Z,100810.41
2023-04-16T05:59:56.534Z,100808.06
2023-04-16T06:02:23.569Z,100820.81
2023-04-16T06:04:50.527Z,100814.22
2023-04-16T06:07:17.360Z,100815.69
2023-04-16T06:09:45.888Z,100819.47
2023-04-16T06:12:12.835Z,100816.19
2023-04-16T06:14:39.593Z,100823.13
2023-04-16T06:17:06.392Z,100825.88
2023-04-16T06:19:33.141Z,100830.69
2023-04-16T06:21:59.921Z,100826.13
2023-04-16T06:24:26.801Z,100831.75
2023-04-16T06:26:54.551Z,100832.44
2023-04-16T06:29:24.042Z,100840.50
2023-04-16T06:31:55.201Z,100838.25
2023-04-16T06:34:21.979Z,100836.56
2023-04-16T06:36:48.747Z,100847.53
2023-04-16T06:39:15.662Z,100850.84
2023-04-16T06:41:42.757Z,100844.50
2023-04-16T06:44:09.533Z,100851.72
2023-04-16T06:46:36.530Z,100853.75
2023-04-16T06:49:03.424Z,100843.31
2023-04-16T06:51:30.266Z,100846.31
2023-04-16T06:53:57.118Z,100850.41
2023-04-16T06:56:23.958Z,100856.50
2023-04-16T06:58:51.598Z,100857.34
2023-04-16T07:01:18.840Z,100855.56
2023-04-16T07:03:46.462Z,100862.72
2023-04-16T07:06:13.424Z,100860.88
2023-04-16T07:08:40.200Z,100868.56
2023-04-16T07:11:06.962Z,100868.56
2023-04-16T07:13:33.744Z,100864.59
2023-04-16T07:16:00.704Z,100866.22
2023-04-16T07:18:27.582Z,100874.19
2023-04-16T07:20:54.349Z,100868.97
2023-04-16T07:23:21.125Z,100872.31
2023-04-16T07:25:47.899Z,100877.28
2023-04-16T07:28:17.319Z,100878.56
2023-04-16T07:30:44.147Z,100882.75
2023-04-16T07:33:11.214Z,100887.22
2023-04-16T07:35:38.013Z,100886.28
2023-04-16T07:38:04.848Z,100895.91
2023-04-16T07:40:31.657Z,100892.75
2023-04-16T07:42:58.529Z,100882.41
2023-04-16T07:45:25.309Z,100896.09
2023-04-16T07:47:52.159Z,100896.00
2023-04-16T07:50:19.729Z,100896.28
2023-04-16T07:52:47.559Z,100904.13
2023-04-16T07:55:14.342Z,100908.00
2023-04-16T07:57:41.556Z,100912.00
2023-04-16T08:00:09.381Z,100903.28
2023-04-16T08:02:42.513Z,100906.63
2023-04-16T08:05:09.582Z,100908.25
2023-04-16T08:07:36.371Z,100908.25
2023-04-16T08:10:03.305Z,100911.28
2023-04-16T08:12:31.404Z,100911.59
2023-04-16T08:14:58.253Z,100915.44
2023-04-16T08:17:25.183Z,100911.69
2023-04-16T08:19:51.985Z,100925.16
2023-04-16T08:22:19.152Z,100927.09
2023-04-16T08:24:46.233Z,100928.31
2023-04-16T08:27:19.353Z,100932.59
2023-04-16T08:29:47.778Z,100930.53
2023-04-16T08:32:14.636Z,100928.97
2023-04-16T08:34:42.525Z,100925.56
2023-04-16T08:37:09.973Z,100935.53
2023-04-16T08:39:36.958Z,100941.00
2023-04-16T08:42:06.275Z,100939.22
2023-04-16T08:44:35.424Z,100937.16
2023-04-16T08:47:02.644Z,100944.94
2023-04-16T08:49:29.714Z,100942.06
2023-04-16T08:51:57.304Z,100940.69
2023-04-16T08:54:56.532Z,100944.44
2023-04-16T08:57:24.727Z,100953.94
2023-04-16T08:59:52.033Z,100950.78
2023-04-16T09:02:19.204Z,100957.56
2023-04-16T09:04:47.346Z,100961.75
2023-04-16T09:07:14.889Z,100955.56
2023-04-16T09:09:42.387Z,100962.25
2023-04-16T09:12:10.387Z,100966.88
2023-04-16T09:14:38.444Z,100969.44
2023-04-16T09:17:06.577Z,100975.88
2023-04-16T09:19:33.390Z,100974.50
2023-04-16T09:22:00.444Z,100983.50
2023-04-16T09:24:27.254Z,100979.47
2023-04-16T09:26:55.072Z,100983.13
2023-04-16T09:29:41.370Z,100983.31
2023-04-16T09:32:09.960Z,100981.59
2023-04-16T09:34:57.501Z,100981.28
2023-04-16T09:37:25.876Z,100984.84
2023-04-16T09:39:55.279Z,100983.84
2023-04-16T09:42:29.348Z,100982.06
2023-04-16T09:44:59.334Z,100987.88
2023-04-16T09:47:39.517Z,100992.75
2023-04-16T09:50:07.284Z,100991.47
2023-04-16T09:52:37.197Z,100993.69
2023-04-16T09:55:04.305Z,100988.53
2023-04-16T09:57:31.115Z,101002.31
2023-04-16T10:00:09.520Z,100996.44
2023-04-16T10:02:39.468Z,100999.09
2023-04-16T10:05:06.827Z,100989.63
2023-04-16T10:07:34.933Z,101000.19
2023-04-16T10:10:03.119Z,100991.84
2023-04-16T10:12:32.913Z,101004.00
2023-04-16T10:14:59.980Z,100998.44
2023-04-16T10:17:27.513Z,101004.16
2023-04-16T10:19:54.790Z,101010.97
2023-04-16T10:22:21.620Z,101004.97
2023-04-16T10:24:49.042Z,101000.56
2023-04-16T10:27:17.394Z,101010.06
2023-04-16T10:29:44.748Z,101001.78
2023-04-16T10:32:11.902Z,100998.66
2023-04-16T10:34:39.199Z,101001.41
2023-04-16T10:37:06.510Z,101012.72
2023-04-16T10:39:37.621Z,101013.75
2023-04-16T10:42:09.912Z,101010.75
2023-04-16T10:44:36.822Z,101008.75
2023-04-16T10:47:03.932Z,101015.34
2023-04-16T10:49:31.121Z,101011.44
2023-04-16T10:51:59.280Z,101015.88
2023-04-16T10:54:27.827Z,101018.72
2023-04-16T10:56:57.437Z,101027.38
2023-04-16T10:59:24.759Z,101016.06
2023-04-16T11:01:56.630Z,101030.00
2023-04-16T11:04:32.534Z,101030.44
2023-04-16T11:07:11.803Z,101026.09
2023-04-16T11:09:57.930Z,101032.13
2023-04-16T11:12:34.458Z,101027.06
2023-04-16T11:15:02.763Z,101035.81
2023-04-16T11:17:33.817Z,101028.00
2023-04-16T11:20:01.169Z,101037.72
2023-04-16T11:22:28.111Z,101037.72
2023-04-16T11:24:57.910Z,101045.34
2023-04-16T11:27:25.082Z,101037.63
2023-04-16T11:30:10.422Z,101044.25
2023-04-16T11:32:38.595Z,101043.88
2023-04-16T11:35:17.420Z,101044.56
2023-04-16T11:37:45.026Z,101045.59
2023-04-16T11:40:12.896Z,101055.53
2023-04-16T11:42:41.125Z,101057.59
2023-04-16T11:45:09.646Z,101052.03
2023-04-16T11:47:47.789Z,101059.06
2023-04-16T11:50:18.664Z,101057.34
2023-04-16T11:52:45.435Z,101054.19
2023-04-16T11:55:12.251Z,101052.03
2023-04-16T11:57:39.119Z,101067.78
2023-04-16T12:00:10.734Z,101058.13
2023-04-16T12:03:07.103Z,101055.63
2023-04-16T12:05:39.215Z,101068.50
2023-04-16T12:08:08.277Z,101070.34
2023-04-16T12:10:37.747Z,101080.66
2023-04-16T12:13:14.588Z,101075.25
2023-04-16T12:15:49.790Z,101074.91
2023-04-16T12:18:17.872Z,101075.09
2023-04-16T12:20:45.614Z,101092.28
2023-04-16T12:23:26.420Z,101088.78
2023-04-16T12:25:53.432Z,101093.22
2023-04-16T12:28:35.067Z,101082.88
2023-04-16T12:31:02.709Z,101093.00
2023-04-16T12:33:29.859Z,101085.38
2023-04-16T12:35:56.942Z,101083.66
2023-04-16T12:38:24.648Z,101089.94
2023-04-16T12:40:52.126Z,101086.81
2023-04-16T12:43:19.967Z,101088.72
2023-04-16T12:45:46.875Z,101084.16
2023-04-16T12:48:13.673Z,101091.09
2023-04-16T12:50:40.674Z,101089.31
2023-04-16T12:53:07.503Z,101080.41
2023-04-16T12:55:34.370Z,101086.06
2023-04-16T12:58:01.208Z,101081.25
2023-04-16T13:00:28.088Z,101078.06
2023-04-16T13:02:54.954Z,101080.53
2023-04-16T13:05:22.080Z,101074.28
2023-04-16T13:07:48.854Z,101081.22
2023-04-16T13:10:15.643Z,101089.69
2023-04-16T13:12:42.422Z,101091.94
2023-04-16T13:15:10.052Z,101089.88
2023-04-16T13:17:36.907Z,101089.78
2023-04-16T13:20:03.941Z,101093.56
2023-04-16T13:22:30.809Z,101098.97
2023-04-16T13:24:57.665Z,101099.22
2023-04-16T13:27:24.557Z,101095.19
2023-04-16T13:29:51.332Z,101100.31
2023-04-16T13:32:19.109Z,101097.56
2023-04-16T13:34:45.977Z,101099.97
2023-04-16T13:37:12.979Z,101101.75
2023-04-16T13:39:39.867Z,101108.31
2023-04-16T13:42:06.714Z,101103.78
2023-04-16T13:44:33.553Z,101101.84
2023-04-16T13:47:00.609Z,101107.06
2023-04-16T13:49:27.516Z,101106.44
2023-04-16T13:51:54.303Z,101100.25
2023-04-16T13:54:21.067Z,101106.59
2023-04-16T13:56:47.884Z,101103.63
2023-04-16T13:59:16.767Z,101108.75
2023-04-16T14:01:43.546Z,101104.16
2023-04-16T14:04:10.593Z,101098.81
2023-04-16T14:06:37.470Z,101107.03
2023-04-16T14:09:04.654Z,101102.75
2023-04-16T14:11:31.861Z,101110.91
2023-04-16T14:13:58.820Z,101110.91
2023-04-16T14:16:26.272Z,101101.56
2023-04-16T14:18:53.205Z,101102.00
2023-04-16T14:21:20.083Z,101105.50
2023-04-16T14:23:47.016Z,101119.28
2023-04-16T14:26:14.483Z,101114.16
2023-04-16T14:28:41.654Z,101116.81
2023-04-16T14:31:08.655Z,101126.81
2023-04-16T14:33:35.529Z,101123.97
2023-04-16T14:36:03.582Z,101124.78
2023-04-16T14:38:31.426Z,101124.69
2023-04-16T14:41:00.571Z,101117.59
2023-04-16T14:43:27.503Z,101122.72
2023-04-16T14:45:54.310Z,101131.91
2023-04-16T14:48:22.233Z,101124.00
2023-04-16T14:50:49.159Z,101118.44
2023-04-16T14:53:16.130Z,101118.69
2023-04-16T14:55:42.921Z,101125.63
2023-04-16T14:58:10.903Z,101130.38
2023-04-16T15:00:37.824Z,101122.22
2023-04-16T15:03:05.081Z,101133.78
2023-04-16T15:05:32.226Z,101124.69
2023-04-16T15:07:59.404Z,101133.97
2023-04-16T15:10:26.347Z,101131.13
2023-04-16T15:12:53.559Z,101132.31
2023-04-16T15:15:24.058Z,101135.31
2023-04-16T15:17:52.089Z,101132.91
2023-04-16T15:20:18.957Z,101133.75
2023-04-16T15:22:46.078Z,101129.13
2023-04-16T15:25:13.009Z,101140.41
2023-04-16T15:27:39.839Z,101144.34
2023-04-16T15:30:07.494Z,101143.06
2023-04-16T15:32:34.271Z,101144.44
2023-04-16T15:35:03.134Z,101136.78
2023-04-16T15:37:30.021Z,101138.41
2023-04-16T15:39:57.081Z,101158.81
2023-04-16T15:42:24.087Z,101154.25
2023-04-16T15:44:50.874Z,101162.31
2023-04-16T15:47:17.636Z,101160.06
2023-04-16T15:49:44.472Z,101162.72
2023-04-16T15:52:12.156Z,101163.72
2023-04-16T15:54:38.999Z,101166.47
2023-04-16T15:57:05.810Z,101167.41
2023-04-16T15:59:33.086Z,101171.94
2023-04-16T16:02:00.209Z,101178.56
2023-04-16T16:04:28.451Z,101174.19
2023-04-16T16:06:55.858Z,101180.94
2023-04-16T16:09:26.751Z,101179.81
2023-04-16T16:11:59.034Z,101185.13
2023-04-16T16:14:27.032Z,101181.53
2023-04-16T16:16:56.641Z,101185.91
2023-04-16T16:19:23.430Z,101188.69
2023-04-16T16:21:50.211Z,101183.69
2023-04-16T16:24:17.000Z,101183.47
2023-04-16T16:26:44.211Z,101183.00
2023-04-16T16:29:11.332Z,101182.31
2023-04-16T16:31:38.883Z,101190.25
2023-04-16T16:34:05.868Z,101183.16
2023-04-16T16:36:36.810Z,101190.00
2023-04-16T16:39:04.477Z,101194.63
2023-04-16T16:41:31.381Z,101189.53
2023-04-16T16:43:59.254Z,101189.47
2023-04-16T16:46:26.127Z,101193.84
2023-04-16T16:48:52.956Z,101194.78
2023-04-16T16:51:19.773Z,101196.78
2023-04-16T16:53:46.777Z,101195.56
2023-04-16T16:56:13.570Z,101198.75
2023-04-16T16:58:40.511Z,101202.25
2023-04-16T17:01:07.460Z,101194.28
2023-04-16T17:03:34.799Z,101203.25
2023-04-16T17:06:02.195Z,101217.16
2023-04-16T17:08:29.277Z,101213.88
2023-04-16T17:10:56.154Z,101209.44
2023-04-16T17:13:26.176Z,101220.66
2023-04-16T17:15:55.545Z,101214.75
2023-04-16T17:18:22.354Z,101221.13
2023-04-16T17:20:49.280Z,101219.34
2023-04-16T17:23:16.537Z,101223.00
2023-04-16T17:25:43.467Z,101222.84
2023-04-16T17:28:10.416Z,101228.78
2023-04-16T17:30:37.774Z,101228.50
2023-04-16T17:33:04.860Z,101230.06
2023-04-16T17:35:31.845Z,101233.47
2023-04-16T17:37:58.644Z,101228.31
2023-04-16T17:40:25.911Z,101237.75
2023-04-16T17:42:52.671Z,101245.16
2023-04-16T17:45:19.981Z,101238.31
2023-04-16T17:47:49.231Z,101241.66
2023-04-16T17:50:16.139Z,101250.81
2023-04-16T17:52:43.542Z,101247.81
2023-04-16T17:55:11.666Z,101248.72
2023-04-16T17:57:46.483Z,101251.53
2023-04-16T18:00:43.984Z,101252.63
2023-04-16T18:03:28.199Z,101262.16
2023-04-16T18:05:55.147Z,101265.53
2023-04-16T18:08:23.320Z,101267.59
2023-04-16T18:10:50.887Z,101270.53
2023-04-16T18:13:18.697Z,101276.66
2023-04-16T18:15:45.549Z,101275.56
2023-04-16T18:18:12.400Z,101271.09
2023-04-16T18:20:39.181Z,101278.22
2023-04-16T18:23:06.114Z,101281.06
2023-04-16T18:25:35.245Z,101295.97
2023-04-16T18:28:04.055Z,101291.59
2023-04-16T18:30:30.896Z,101293.97
2023-04-16T18:35:27.447Z,101299.72
2023-04-16T18:37:54.216Z,101301.06
2023-04-16T18:40:21.088Z,101304.00
2023-04-16T18:42:47.949Z,101304.63
2023-04-16T18:45:20.976Z,101310.09
2023-04-16T18:47:48.578Z,101312.66
2023-04-16T18:50:15.714Z,101310.81
2023-04-16T18:52:43.587Z,101319.63
2023-04-16T18:55:10.474Z,101329.56
2023-04-16T18:57:37.335Z,101317.03
2023-04-16T19:00:09.599Z,101319.84
2023-04-16T19:02:36.565Z,101322.44
2023-04-16T19:05:04.918Z,101321.78
2023-04-16T19:07:31.863Z,101322.63
2023-04-16T19:09:58.980Z,101322.56
2023-04-16T19:12:38.664Z,101324.44
2023-04-16T19:15:09.034Z,101331.88
2023-04-16T19:17:36.434Z,101329.22
2023-04-16T19:20:08.113Z,101328.72
2023-04-16T19:22:39.202Z,101331.53
2023-04-16T19:25:06.587Z,101330.66
2023-04-16T19:27:33.698Z,101345.84
2023-04-16T19:30:00.560Z,101338.69
2023-04-16T19:32:27.404Z,101337.84
2023-04-16T19:34:54.161Z,101340.69
2023-04-16T19:37:20.911Z,101343.47
2023-04-16T19:39:47.908Z,101338.31
2023-04-16T19:42:14.833Z,101340.75
2023-04-16T19:44:41.641Z,101350.03
2023-04-16T19:47:08.528Z,101347.19
2023-04-16T19:49:35.551Z,101351.91
2023-04-16T19:52:02.379Z,101341.09
2023-04-16T19:54:29.425Z,101347.38
2023-04-16T19:56:57.241Z,101347.13
2023-04-16T19:59:28.313Z,101343.13
2023-04-16T20:01:55.138Z,101356.16
2023-04-16T20:04:22.024Z,101347.88
2023-04-16T20:06:49.429Z,101348.47
2023-04-16T20:09:18.726Z,101350.59
2023-04-16T20:11:46.528Z,101351.72
2023-04-16T20:14:13.547Z,101355.03
2023-04-16T20:16:41.044Z,101349.34
2023-04-16T20:19:09.127Z,101356.44
2023-04-16T20:21:36.505Z,101361.84
2023-04-16T20:24:03.616Z,101358.94
2023-04-16T20:26:33.885Z,101352.50
2023-04-16T20:29:01.090Z,101360.47
2023-04-16T20:31:28.523Z,101348.41
2023-04-16T20:33:55.495Z,101352.13
2023-04-16T20:36:22.303Z,101356.22
2023-04-16T20:38:51.459Z,101359.53
2023-04-16T20:41:22.758Z,101363.13
2023-04-16T20:43:50.445Z,101365.81
2023-04-16T20:46:17.960Z,101362.25
2023-04-16T20:48:44.857Z,101361.47
2023-04-16T20:51:11.903Z,101371.13
2023-04-16T20:53:38.809Z,101376.09
2023-04-16T20:56:07.043Z,101361.94
2023-04-16T20:58:33.925Z,101374.22
2023-04-16T21:01:01.002Z,101372.38
2023-04-16T21:03:28.025Z,101377.47
2023-04-16T21:05:55.772Z,101382.38
2023-04-16T21:08:23.642Z,101375.22
2023-04-16T21:10:50.776Z,101373.69
2023-04-16T21:13:17.607Z,101379.81
2023-04-16T21:15:45.260Z,101376.47
2023-04-16T21:18:12.396Z,101383.28
2023-04-16T21:20:39.447Z,101380.25
2023-04-16T21:23:07.079Z,101382.09
2023-04-16T21:25:33.877Z,101381.31
2023-04-16T21:28:00.766Z,101387.53
2023-04-16T21:30:27.616Z,101383.97
2023-04-16T21:32:55.051Z,101381.25
2023-04-16T21:35:21.937Z,101377.00
2023-04-16T21:37:48.758Z,101381.38
2023-04-16T21:40:15.774Z,101379.19
2023-04-16T21:42:42.676Z,101380.91
2023-04-16T21:45:10.575Z,101387.00
2023-04-16T21:47:38.124Z,101386.19
2023-04-16T21:50:05.941Z,101376.59
2023-04-16T21:52:33.151Z,101380.84
2023-04-16T21:55:00.796Z,101377.78
2023-04-16T21:57:27.576Z,101381.56
2023-04-16T21:59:54.360Z,101377.69
2023-04-16T22:02:21.323Z,101383.97
2023-04-16T22:04:48.880Z,101384.34
2023-04-16T22:07:16.991Z,101385.47
2023-04-16T22:09:44.130Z,101381.84
2023-04-16T22:12:10.988Z,101377.47
2023-04-16T22:14:44.009Z,101383.88
2023-04-16T22:17:13.246Z,101381.41
2023-04-16T22:19:40.065Z,101386.78
2023-04-16T22:22:06.834Z,101390.03
2023-04-16T22:24:33.761Z,101392.91
2023-04-16T22:27:01.470Z,101384.13
2023-04-16T22:29:28.309Z,101388.22
2023-04-16T22:31:55.415Z,101390.09
2023-04-16T22:34:22.342Z,101394.78
2023-04-16T22:36:49.114Z,101392.31
2023-04-16T22:39:16.139Z,101389.78
2023-04-16T22:41:42.916Z,101387.09
2023-04-16T22:44:10.132Z,101404.09
2023-04-16T22:46:37.127Z,101398.19
2023-04-16T22:49:03.950Z,101388.38
2023-04-16T22:51:30.829Z,101402.34
2023-04-16T22:53:57.587Z,101405.06
2023-04-16T22:56:28.960Z,101404.16
2023-04-16T22:58:55.983Z,101386.16
2023-04-16T23:01:23.790Z,101392.97
2023-04-16T23:03:50.653Z,101403.72
2023-04-16T23:06:17.466Z,101390.34
2023-04-16T23:08:44.681Z,101394.97
2023-04-16T23:11:11.878Z,101398.88
2023-04-16T23:13:38.725Z,101398.03
2023-04-16T23:16:05.971Z,101392.88
2023-04-16T23:18:32.865Z,101402.66
2023-04-16T23:20:59.692Z,101400.81
2023-04-16T23:23:26.557Z,101395.75
2023-04-16T23:25:53.941Z,101400.50
2023-04-16T23:28:21.745Z,101402.22
2023-04-16T23:30:52.644Z,101394.16
2023-04-16T23:33:19.660Z,101398.72
2023-04-16T23:35:47.486Z,101394.22
2023-04-16T23:38:14.306Z,101400.28
2023-04-16T23:40:41.413Z,101401.88
2023-04-16T23:43:08.299Z,101401.41
2023-04-16T23:45:35.205Z,101398.00
2023-04-16T23:48:02.167Z,101402.59
2023-04-16T23:50:28.997Z,101398.38
2023-04-16T23:52:55.862Z,101401.72
2023-04-16T23:55:22.767Z,101398.16
2023-04-16T23:57:49.644Z,101399.63
